Latest Weather Observations for Mount Magnet Airport

IDW60801

Issued at 11:02 pm WST Thursday 3 September 2015 (issued every 30 minutes, with the page automatically refreshed every 10 minutes)

About weather observations | Map of weather stations | Latest weather observations for WA | Other Formats
Station Details ID: 007600 Name: MOUNT MAGNET AERO Lat: -28.12 Lon: 117.84 Height: 407.0 m
Data from the previous 72 hours. | See also: Recent months at Mount Magnet Airport
Date/Time
WST
Temp
°C
App
Temp
°C
Dew
Point
Rel
Hum
%
Delta-T
°C
Wind Press
QNH
hPa
Press
MSL
hPa
Rain
since 9 am
mm
Dir
 
Spd
km/h
Gust
km/h
Spd
kts
Gust
kts
03/11:00pm 13.6 10.8 2.2 46 5.1 SW 6 7 3 4 1019.2 1018.1 0.0
03/10:30pm 13.6 10.8 1.9 45 5.2 WNW 6 7 3 4 1019.3 1018.2 0.0
03/10:00pm 14.3 11.5 1.9 43 5.5 NW 6 13 3 7 1019.3 1018.2 0.0
03/09:30pm 14.5 12.9 2.7 45 5.4 CALM 0 0 0 0 1019.4 1018.3 0.0
03/09:00pm 15.5 13.5 2.3 41 6.0 SW 2 6 1 3 1019.5 1018.4 0.0
03/08:30pm 16.4 14.6 0.9 35 6.9 CALM 0 0 0 0 1019.3 1018.2 0.0
03/08:00pm 17.2 15.4 1.2 34 7.2 CALM 0 0 0 0 1019.2 1018.1 0.0
03/07:30pm 18.2 15.3 1.3 32 7.7 NW 6 7 3 4 1019.1 1018.0 0.0
03/07:00pm 19.7 17.9 1.2 29 8.5 CALM 0 0 0 0 1018.7 1017.7 0.0
03/06:30pm 20.9 17.6 0.2 25 9.5 NE 7 9 4 5 1018.4 1017.4 0.0
03/06:00pm 22.5 19.1 -0.3 22 10.4 NE 7 9 4 5 1018.2 1017.2 0.0
03/05:30pm 23.9 19.7 -1.1 19 11.4 NNE 11 13 6 7 1018.2 1017.2 0.0
03/05:00pm 24.5 20.6 -1.3 18 11.8 N 9 13 5 7 1018.1 1017.1 0.0
03/04:30pm 24.8 19.1 -1.1 18 11.9 N 19 26 10 14 1018.2 1017.2 0.0
03/04:00pm 24.9 19.9 -1.0 18 11.9 NNW 15 24 8 13 1018.3 1017.3 0.0
03/03:30pm 25.4 20.9 -0.6 18 12.1 NNW 13 22 7 12 1018.3 1017.3 0.0
03/03:00pm 25.2 20.3 -0.8 18 12.0 N 15 20 8 11 1018.2 1017.2 0.0
03/02:30pm 25.1 19.4 -0.9 18 12.0 N 19 35 10 19 1018.2 1017.2 0.0
03/02:00pm 24.9 20.0 -0.3 19 11.7 NNW 15 20 8 11 1018.6 1017.6 0.0
03/01:30pm 23.8 18.8 -1.2 19 11.4 N 15 26 8 14 1018.9 1017.9 0.0
03/01:00pm 23.4 19.1 -1.5 19 11.2 NNE 11 20 6 11 1019.3 1018.2 0.0
03/12:30pm 22.7 17.7 -1.4 20 10.8 N 15 22 8 12 1019.6 1018.6 0.0
03/12:00pm 22.3 17.6 -1.7 20 10.7 NNE 13 20 7 11 1020.2 1019.2 0.0
03/11:30am 21.4 15.6 -1.8 21 10.2 NNE 19 24 10 13 1020.7 1019.7 0.0
03/11:00am 20.3 14.3 -2.7 21 9.8 NNE 19 26 10 14 1021.2 1020.2 0.0
03/10:30am 19.6 13.6 -2.7 22 9.5 NNE 19 26 10 14 1021.5 1020.5 0.0
03/10:00am 18.3 12.0 -3.8 22 9.1 NE 20 30 11 16 1021.8 1020.8 0.0
03/09:30am 17.5 11.3 -3.3 24 8.6 NE 20 30 11 16 1021.8 1020.8 0.0
03/09:00am 15.9 8.9 -3.6 26 7.8 NE 24 33 13 18 1021.8 1020.8 0.0
03/08:30am 13.8 7.6 -3.5 30 6.8 ENE 20 28 11 15 1021.7 1020.7 0.0
03/08:00am 11.5 6.3 -3.0 36 5.6 ENE 15 20 8 11 1021.5 1020.5 0.0
03/07:30am 9.3 4.1 -2.9 42 4.7 E 15 20 8 11 1021.7 1020.7 0.0
03/07:00am 8.0 2.8 -2.9 46 4.1 ENE 15 20 8 11 1021.4 1020.4 0.0
03/06:30am 6.7 2.6 -2.7 51 3.5 ENE 9 15 5 8 1021.3 1020.3 0.0
03/06:00am 6.2 2.5 -2.7 53 3.3 ESE 7 9 4 5 1021.1 1020.1 0.0
03/05:30am 6.7 2.6 -2.7 51 3.5 ESE 9 11 5 6 1021.0 1020.0 0.0
03/05:00am 6.6 2.9 -2.5 52 3.4 E 7 11 4 6 1020.8 1019.8 0.0
03/04:30am 6.4 2.4 -2.5 53 3.3 E 9 13 5 7 1020.7 1019.7 0.0
03/04:00am 6.9 2.5 -2.5 51 3.5 ENE 11 13 6 7 1020.7 1019.7 0.0
03/03:30am 7.3 3.2 -3.0 48 3.8 ENE 9 9 5 5 1020.7 1019.7 0.0
03/03:00am 8.0 3.9 -2.9 46 4.1 E 9 11 5 6 1020.8 1019.8 0.0
03/02:30am 8.9 4.4 -3.0 43 4.5 E 11 15 6 8 1020.9 1019.9 0.0
03/02:00am 9.5 4.3 -2.8 42 4.7 E 15 19 8 10 1021.0 1020.0 0.0
03/01:30am 9.8 4.6 -2.8 41 4.9 E 15 22 8 12 1021.0 1020.0 0.0
03/01:00am 10.4 4.8 -2.9 39 5.1 E 17 20 9 11 1021.2 1020.2 0.0
03/12:30am 10.6 5.4 -3.1 38 5.3 ESE 15 20 8 11 1021.4 1020.4 0.0
03/12:00am 10.7 5.5 -3.0 38 5.3 E 15 20 8 11 1021.3 1020.3 0.0
 
Date/Time
WST
Temp
°C
App
Temp
°C
Dew
Point
Rel
Hum
%
Delta-T
°C
Wind Press
QNH
hPa
Press
MSL
hPa
Rain
since 9 am
mm
Dir
 
Spd
km/h
Gust
km/h
Spd
kts
Gust
kts
02/11:30pm 11.0 5.8 -3.1 37 5.5 E 15 19 8 10 1021.8 1020.8 0.0
02/11:00pm 11.2 6.7 -2.9 37 5.5 E 11 17 6 9 1022.0 1021.0 0.0
02/10:30pm 10.1 6.1 -1.9 43 4.7 ESE 9 11 5 6 1022.1 1021.1 0.0
02/10:00pm 10.1 6.2 -1.6 44 4.6 ESE 9 11 5 6 1022.1 1021.1 0.0
02/09:30pm 10.7 6.8 -1.7 42 4.9 ESE 9 13 5 7 1022.3 1021.3 0.0
02/09:00pm 11.6 6.9 -1.5 40 5.3 ESE 13 15 7 8 1022.2 1021.2 0.0
02/08:30pm 12.0 7.7 -1.5 39 5.5 ESE 11 15 6 8 1022.3 1021.3 0.0
02/08:00pm 12.9 8.2 -1.8 36 6.0 SE 13 15 7 8 1022.3 1021.3 0.0
02/07:30pm 13.7 9.4 -1.5 35 6.3 SE 11 15 6 8 1022.1 1021.1 0.0
02/07:00pm 14.3 10.0 -1.3 34 6.5 SE 11 17 6 9 1021.7 1020.7 0.0
02/06:30pm 15.4 11.5 -1.6 31 7.1 SE 9 11 5 6 1021.3 1020.3 0.0
02/06:00pm 16.3 11.9 -2.2 28 7.7 ESE 11 15 6 8 1020.8 1019.8 0.0
02/05:30pm 16.9 11.8 -1.7 28 7.9 E 15 22 8 12 1020.6 1019.6 0.0
02/05:00pm 17.1 11.6 -2.0 27 8.0 ESE 17 28 9 15 1020.4 1019.4 0.0
02/04:30pm 17.4 12.7 -1.8 27 8.2 E 13 20 7 11 1020.3 1019.3 0.0
02/04:00pm 17.6 12.2 -1.6 27 8.2 E 17 24 9 13 1020.4 1019.4 0.0
02/03:30pm 17.1 12.4 -1.5 28 7.9 E 13 24 7 13 1020.4 1019.4 0.0
02/03:00pm 16.9 11.5 -1.2 29 7.7 ESE 17 26 9 14 1020.5 1019.5 0.0
02/02:30pm 16.1 10.4 -1.0 31 7.3 SE 19 32 10 17 1020.9 1019.9 0.0
02/02:00pm 16.3 11.0 -0.8 31 7.3 E 17 24 9 13 1021.1 1020.1 0.0
02/01:30pm 15.7 10.7 -0.9 32 7.1 E 15 22 8 12 1021.4 1020.4 0.0
02/01:00pm 14.9 10.0 -0.8 34 6.6 E 15 22 8 12 1021.9 1020.9 0.0
02/12:30pm 14.8 9.8 -0.9 34 6.6 NE 15 22 8 12 1022.4 1021.4 0.0
02/12:00pm 13.8 7.9 -1.0 36 6.2 ESE 20 28 11 15 1023.0 1022.0 0.0
02/11:30am 13.5 7.8 -0.9 37 6.0 NE 19 26 10 14 1023.6 1022.6 0.0
02/11:00am 13.2 7.5 -0.4 39 5.7 ENE 19 26 10 14 1024.0 1023.1 0.0
02/10:30am 12.6 6.8 -0.3 41 5.4 E 20 30 11 16 1024.3 1023.3 0.0
02/10:00am 11.6 5.0 -0.2 44 4.9 E 24 33 13 18 1024.4 1023.4 0.0
02/09:30am 11.1 5.0 0.2 47 4.6 E 22 35 12 19 1024.7 1023.7 0.0
02/09:00am 9.9 3.0 0.3 51 4.0 E 26 35 14 19 1024.7 1023.7 0.0
02/08:30am 8.9 2.8 0.4 55 3.5 E 22 32 12 17 1024.6 1023.6 0.0
02/08:00am 8.1 1.6 0.3 58 3.2 E 24 30 13 16 1024.7 1023.7 0.0
02/07:30am 7.0 1.2 0.0 61 2.8 ESE 20 28 11 15 1024.4 1023.4 0.0
02/07:00am 5.3 1.6 -0.3 67 2.2 ESE 9 13 5 7 1024.1 1023.2 0.0
02/06:30am 3.4 -0.4 -1.0 73 1.6 ESE 9 11 5 6 1023.9 1023.0 0.0
02/06:00am 3.1 -0.4 -1.3 73 1.6 ESE 7 7 4 4 1023.6 1022.6 0.0
02/05:30am 3.5 0.0 -1.3 71 1.8 ESE 7 9 4 5 1023.2 1022.2 0.0
02/05:00am 3.7 -0.2 -1.4 69 1.9 SE 9 11 5 6 1023.1 1022.1 0.0
02/04:30am 3.9 0.0 -1.7 67 2.1 SE 9 9 5 5 1023.0 1022.0 0.0
02/04:00am 4.4 0.5 -1.8 64 2.3 SE 9 9 5 5 1022.9 1021.9 0.0
02/03:30am 4.8 1.5 -1.6 63 2.4 SE 6 7 3 4 1023.0 1022.0 0.0
02/03:00am 5.0 1.4 -1.9 61 2.6 ESE 7 9 4 5 1023.2 1022.2 0.0
02/02:30am 5.1 1.2 -1.6 62 2.5 ESE 9 9 5 5 1023.1 1022.1 0.0
02/02:00am 5.7 2.2 -1.7 59 2.8 ESE 7 11 4 6 1023.2 1022.2 0.0
02/01:30am 6.0 1.7 -1.9 57 3.0 SE 11 13 6 7 1023.1 1022.1 0.0
02/01:00am 5.9 2.9 -1.7 58 2.9 ESE 4 7 2 4 1023.1 1022.1 0.0
02/12:30am 6.5 2.2 -1.9 55 3.2 SE 11 13 6 7 1023.2 1022.2 0.0
02/12:00am 7.0 3.0 -1.9 53 3.4 SE 9 11 5 6 1023.2 1022.2 0.0
 
Date/Time
WST
Temp
°C
App
Temp
°C
Dew
Point
Rel
Hum
%
Delta-T
°C
Wind Press
QNH
hPa
Press
MSL
hPa
Rain
since 9 am
mm
Dir
 
Spd
km/h
Gust
km/h
Spd
kts
Gust
kts
01/11:30pm 7.9 3.2 -1.9 50 3.8 SE 13 17 7 9 1023.3 1022.3 0.0
01/11:00pm 8.5 3.0 -1.9 48 4.0 SSE 17 22 9 12 1023.3 1022.3 0.0
01/10:30pm 9.0 2.9 -2.0 46 4.3 SSE 20 28 11 15 1023.4 1022.4 0.0
01/10:00pm 9.1 3.7 -1.3 48 4.1 SSE 17 24 9 13 1023.3 1022.3 0.0
01/09:30pm 9.2 4.2 -1.2 48 4.1 S 15 17 8 9 1023.2 1022.2 0.0
01/09:00pm 9.6 5.0 -0.9 48 4.2 S 13 15 7 8 1023.1 1022.1 0.0
01/08:30pm 10.4 6.6 -1.0 45 4.6 S 9 13 5 7 1023.1 1022.1 0.0
01/08:00pm 11.3 7.0 -1.5 41 5.1 S 11 15 6 8 1022.8 1021.8 0.0
01/07:30pm 11.9 6.8 -1.6 39 5.5 S 15 19 8 10 1022.4 1021.4 0.0
01/07:00pm 12.3 7.2 -2.0 37 5.7 S 15 19 8 10 1022.0 1021.0 0.0
01/06:30pm 12.9 7.4 -1.8 36 6.0 S 17 22 9 12 1021.5 1020.5 0.0
01/06:00pm 13.5 7.5 -1.6 35 6.2 S 20 28 11 15 1021.0 1020.0 0.0
01/05:30pm 14.0 8.0 -1.6 34 6.5 SSW 20 30 11 16 1020.6 1019.6 0.0
01/05:00pm 14.4 8.0 -1.6 33 6.6 S 22 28 12 15 1020.3 1019.3 0.0
01/04:30pm 14.7 7.2 -1.4 33 6.7 SSW 28 37 15 20 1020.1 1019.1 0.0
01/04:00pm 15.2 8.5 -1.4 32 7.0 SSW 24 35 13 19 1020.1 1019.1 0.0
01/03:30pm 14.6 7.0 -1.9 32 6.8 SSW 28 37 15 20 1020.0 1019.0 0.0
01/03:00pm 14.8 7.6 -2.1 31 6.9 SSW 26 35 14 19 1020.2 1019.2 0.0
01/02:30pm 14.5 7.4 -1.2 34 6.6 SW 26 37 14 20 1020.3 1019.3 0.0
01/02:00pm 13.7 6.2 -1.5 35 6.3 SSW 28 41 15 22 1020.4 1019.4 0.0
01/01:30pm 13.3 6.8 0.0 40 5.7 SSW 24 35 13 19 1020.7 1019.7 0.0
01/01:00pm 13.5 7.5 1.2 43 5.4 SSW 22 35 12 19 1021.0 1020.0 0.0
01/12:30pm 12.4 4.9 1.4 47 4.8 SSW 30 37 16 20 1021.4 1020.4 0.0
01/12:00pm 12.3 5.3 1.9 49 4.6 S 28 39 15 21 1021.8 1020.8 0.0
01/11:30am 12.0 5.0 2.2 51 4.3 SSW 28 39 15 21 1022.1 1021.1 0.0
01/11:00am 12.3 5.4 2.5 51 4.3 S 28 37 15 20 1022.1 1021.1 0.0
01/10:30am 12.2 5.4 3.2 54 4.1 SSW 28 37 15 20 1022.2 1021.2 0.0
01/10:00am 11.4 5.4 3.4 58 3.6 SSW 24 35 13 19 1022.3 1021.3 0.0
01/09:30am 11.2 4.5 3.5 59 3.5 S 28 35 15 19 1022.4 1021.4 0.0
01/09:00am 10.6 3.9 3.6 62 3.1 SSW 28 37 15 20 1022.2 1021.2 0.0
01/08:30am 10.1 3.6 4.9 70 2.4 SSW 28 35 15 19 1021.8 1020.8 0.0
01/08:00am 10.2 5.0 5.6 73 2.1 SSW 22 30 12 16 1021.4 1020.4 0.0
01/07:30am 9.6 4.9 6.0 78 1.7 SSW 20 26 11 14 1021.1 1020.6 0.0
01/07:00am 9.0 5.6 6.1 82 1.4 SSW 13 17 7 9 1020.7 1020.2 0.0
01/06:30am 9.0 4.9 6.1 82 1.4 SSW 17 20 9 11 1020.3 1019.8 0.0
01/06:00am 9.4 4.7 6.1 80 1.6 SSW 20 28 11 15 1020.0 1019.4 0.0
01/05:30am 9.8 5.1 6.2 78 1.7 SW 20 28 11 15 1019.7 1019.1 0.0
01/05:00am 10.1 5.5 6.4 78 1.8 SW 20 26 11 14 1019.4 1018.8 0.0
01/04:30am 10.7 6.6 6.3 74 2.1 SW 17 24 9 13 1019.2 1018.6 0.0
01/04:00am 11.1 7.4 6.5 73 2.2 SW 15 22 8 12 1018.9 1018.4 0.0
01/03:30am 11.2 6.6 6.5 73 2.3 SSW 20 30 11 16 1018.8 1018.3 0.0
01/03:00am 11.1 6.7 7.6 79 1.7 SSW 20 26 11 14 1018.8 1018.3 0.0
01/02:30am 11.1 6.7 7.6 79 1.7 SSW 20 28 11 15 1018.8 1018.3 0.0
01/02:00am 10.9 4.6 7.6 80 1.6 SSW 30 39 16 21 1019.2 1018.6 0.0
01/01:30am 11.8 7.9 7.1 73 2.3 WSW 17 24 9 13 1019.3 1018.7 0.0
01/01:00am 11.5 8.2 6.6 72 2.4 WSW 13 17 7 9 1019.4 1018.8 0.0
01/12:30am 11.8 8.1 6.5 70 2.6 WSW 15 22 8 12 1019.4 1018.8 0.0
01/12:00am 12.1 8.0 6.2 67 2.8 WSW 17 20 9 11 1019.6 1019.0 0.0
 
Date/Time
WST
Temp
°C
App
Temp
°C
Dew
Point
Rel
Hum
%
Delta-T
°C
Wind Press
QNH
hPa
Press
MSL
hPa
Rain
since 9 am
mm
Dir
 
Spd
km/h
Gust
km/h
Spd
kts
Gust
kts
31/11:30pm 12.6 7.9 6.2 65 3.1 WSW 20 26 11 14 1019.6 1019.0 0.0

Other Formats:

Comma delimited format used in spreadsheet applications
http://www.bom.gov.au/fwo/IDW60801/IDW60801.94429.axf

JavaScript Object Notation format (JSON) in row-major order
http://www.bom.gov.au/fwo/IDW60801/IDW60801.94429.json